KHHF

Hemphill County Airport

Canadian, Texas, USA
METAR KHHF 210355Z AUTO 00000KT 7SM CLR 17/13 A3016 RMK AO2 T01720126
Observed Flight Rules
Aug-21 @ 03:55 UTC (15 minutes ago) Visual Flight Rules
Visibility Clouds
7 miles
  • Clear skies
Temperatures Readings
Current 17°C / 63°F
Dewpoint 13°C / 55°F
Humidity 77%
Altimeter 30.16" Hg
Pressure 1021 hPa
Elevation 712
METAR KHHF 210355Z AUTO 00000KT 7SM CLR 17/13 A3016 RMK AO2 T01720126
Observed Flight Rules
Aug-21 @ 03:55 UTC
(15 minutes ago)
VFR
Clouds
  • Clear skies
Temperature Dewpoint
17°C / 63°F 13°C / 55°F
Humidity Altimeter Pressure
77% 30.16" Hg 1021 hPa